Dutch
Home     News     Corporate     Events & Tours     Flight ops     Crew centre      
My transavia virtual    Join us    Last logs    Who is flying    Software    Training    VRTS     
 

view flightdata
view flightplan
view OFP
view flightlog



flightdata:
pilot: Luis Ferraz
flight: TRA7500
from: LFPO (Paris Paris Orly)
to: EGPH (Edinburgh)
date: 17-04-2021
departure: 07:25z
arrival: 09:23z
duration: 1:51
aircraft: B738 (PHHSA)
distance: 563 NM
touchdown: -152 ft/m @ 125 KIAS



flightplan:
-(FPL-TRA7500-IS
-B738/M-SDEHPRWXY/EHLSB1
-LFPO0731
-N0250F350 OPAL8F OPALE J20 ABB T22 RATUK UL613 SOVAT L613 HALIF UN590 ABEVI UN601 INPIP INPI1E
-EGPH0145 EGCC
-PBN/B1D1LO1 DOF/210417 REG/PHHSA SEL/JQDH CODE/4841A5 OPR/TRA RVR/200 RMK/TCAS)



operational flightplan (OFP):
NO LOADSHEET AVAILABLE

WEATHER BRIEFING - GENERATED 17 APR 2021 07:16 UTC
--------------------------------------------------------------------------------

LFPO EGPH EGCC

--------------------------------------------------------------------------------
ORIGIN: LFPO (PARIS)
--------------------------------------------------------------------------------
LFPO 170700Z 01012KT CAVOK 05/02 Q1025 NOSIG

LFPO 170500Z 1706/1812 01010KT CAVOK


--------------------------------------------------------------------------------
DESTINATION: EGPH (EDINBURGH)
--------------------------------------------------------------------------------
EGPH 170650Z 25001KT CAVOK 01/00 Q1030

EGPH 170453Z 1706/1806 VRB03KT 9999 FEW040 PROB30 1706/1708 3000 BR
      BECMG 1713/1716 06010KT
      BECMG 1718/1721 22003KT


--------------------------------------------------------------------------------
ALTERNATE: EGCC (MANCHESTER)
--------------------------------------------------------------------------------
EGCC 170650Z AUTO VRB02KT 9999 NCD 03/M00 Q1030 NOSIG

EGCC 170459Z 1706/1812 VRB03KT 9999 FEW045=  EGKK 170454Z 1706/1812 03004KT 9999 FEW045


NOTAM BRIEFING - GENERATED 17 APR 2021 07:16 UTC
--------------------------------------------------------------------------------

LFPO EGPH EGCC

--------------------------------------------------------------------------------
GLOBAL TRANSAVIA.COM VIRTUAL NOTAMS
--------------------------------------------------------------------------------
REF:NIL PLEASE CONTACT OPERATIONS IN CASE OF STRUCTURAL FLIGHTPLAN ERRORS ON FLIGHT-OPS@TRANSAVIA-VIRTUAL.COM
VALID:UFN

REF:NIL
PLEASE CHECK ACARS EVERY 10 MINUTES WHEN FLYING WITH SOUND OFF. AN NEW ACARS MESSAGE PRODUCE A SOUND SIGNAL UNTILL ITS READ. FLOWCONTROL DON'T RECEIVE MUCH REACTION ON OUTGOING ACARS MESSAGES ACCORDING FLIGHTSTATUS.
SOURCE: SPL/HV/OCC/
END VALID: UFN

REF:NIL
PLEASE CONTACT FLOWCONTROL IN CASE OF PROBLEMS WITH ROUTINGS
SOURCE: SPL/HV/OCC/
END VALID: UFN

REF:NIL
IN CASE OF ENGINE-OUT FLY V2 OR V2 20 MAX. UNTIL ABOVE MSA.
LEVEL-OFF AT AN ALTITUDE ROUNDED OFF TO THE FIRST 1000 FT OF THE HIGHEST MSA.
E.G: MSA EHAM; 1.7 AND 2.3 LEVEL-OFF 3000 FT. AFTER LANDING MAKE A REP TO OCC ON 131.975
SOURCE:SPL/HV/OCC
END VALID:UFN



flightlog:
Pilot : Luis Ferraz
Flight: TRA7500
From  : LFPO Paris
To    : EGPH Edinburgh

[FLIGHTLOG] 1.5.4
17-04-2021 07:25:12z, logging started
17-04-2021 07:34:16z, flaps set to 13%
17-04-2021 07:34:24z, flaps set to 25%
17-04-2021 07:34:27z, flaps set to 38%
17-04-2021 07:38:52z, take-off at 173 KIAS
17-04-2021 07:38:52z, pos report: 173 KIAS, 00 309 ft, heading 061, winds 010 @ 11 kts
17-04-2021 07:38:53z, flying OFFLINE
17-04-2021 07:38:53z, position: LFPO - Paris
17-04-2021 07:38:58z, retracted gear at 190 KIAS and 222 ft AGL
17-04-2021 07:39:28z, flaps set to 25%
17-04-2021 07:39:32z, flaps set to 13%
17-04-2021 07:39:40z, flaps set to 0%
17-04-2021 07:40:12z, pos report: 257 KIAS, 02 028 ft, heading 086, winds 033 @ 18 kts
17-04-2021 07:55:13z, pos report: 268 KIAS, 35 028 ft, heading 022, winds 029 @ 48 kts
17-04-2021 08:10:14z, pos report: 268 KIAS, 35 117 ft, heading 323, winds 023 @ 46 kts
17-04-2021 08:25:15z, pos report: 268 KIAS, 35 145 ft, heading 334, winds 002 @ 41 kts
17-04-2021 08:40:16z, pos report: 268 KIAS, 35 119 ft, heading 326, winds 356 @ 38 kts
17-04-2021 08:51:20z, deployed spoilers
17-04-2021 08:55:17z, pos report: 255 KIAS, 21 590 ft, heading 337, winds 351 @ 11 kts
17-04-2021 09:08:09z, flaps set to 13%
17-04-2021 09:08:16z, flaps set to 25%
17-04-2021 09:10:18z, pos report: 222 KIAS, 06 875 ft, heading 007, winds 212 @ 07 kts
17-04-2021 09:10:49z, flaps set to 38%
17-04-2021 09:14:10z, on glideslope
17-04-2021 09:14:17z, retracted spoilers
17-04-2021 09:14:19z, flaps set to 50%
17-04-2021 09:14:22z, flaps set to 62%
17-04-2021 09:14:23z, lowered gear at 183 KIAS and 4304 ft AGL
17-04-2021 09:14:24z, flaps set to 75%
17-04-2021 09:14:28z, flaps set to 87%
17-04-2021 09:14:43z, flaps set to 100%
17-04-2021 09:17:07z, intercepted localizer
17-04-2021 09:21:25z, touchdown: -152ft/m at 125 KIAS
17-04-2021 09:21:25z, pos report: 125 KIAS, 00 143 ft, heading 238, winds 180 @ 02 kts
17-04-2021 09:21:25z, flying OFFLINE
17-04-2021 09:21:25z, position: EGPH - Edinburgh
17-04-2021 09:21:37z, retracted spoilers
17-04-2021 09:21:42z, flaps set to 87%
17-04-2021 09:21:46z, flaps set to 75%
17-04-2021 09:21:49z, flaps set to 62%
17-04-2021 09:21:52z, flaps set to 50%
17-04-2021 09:21:56z, flaps set to 38%
17-04-2021 09:21:59z, flaps set to 25%
17-04-2021 09:22:03z, flaps set to 13%
17-04-2021 09:22:10z, flaps set to 0%
17-04-2021 09:23:50z, parking brake set
17-04-2021 09:24:01z, logging ended
17-04-2021 09:24:01z, this flight was flown offline

©2009-2022, transavia virtual. All rights reserved. This website is only meant for simulation purposes.
This website is not owned by transavia, nor is transavia responsible for the content of this website.